Airfield :
LOGIN :

Register | Disclaimer

   EN    FR    IT 

 










Legend :    VFR   Marginal VFR   IFR   Intensive IFR   Very Intensive IFR
Visi :
Ceiling :
>= 8 km
>= 3000ft
5 to 8 km
1000 to 3000 ft
1500m to 5 km
500 to 1000 ft
800 to 1500m
200 to 500 ft
< 800m
< 200 ft
Symbols :   Thunderstorms  Fog  Heavy snow  Heavy precipitations  Wind > 20 kt
SIGMETs :     Misc.  Thunderstorms  Icing  Turbulence  Mountain Waves  Volcanic Ashes







- Airport Elevation : 53 ft
- IATA code : HAM


EDDH - Hamburg

CURRENT METAR :
  • 210120Z 09011KT 9999 OVC021 03/M02 Q1018 NOSIG

EXPIRED METARs :
  • 210050Z 09012KT 050V120 9999 OVC021 03/M02 Q1018 NOSIG
  • 210020Z 09012KT 9999 FEW020 OVC022 03/M02 Q1018 NOSIG
  • 202350Z 10013KT 060V120 9999 FEW021 BKN023 03/M02 Q1018 TEMPO 10015G25KT
  • 202320Z 10013KT 9999 FEW021 OVC023 03/M02 Q1018 TEMPO 10015G25KT
  • 202250Z 10012KT 060V120 9999 FEW021 BKN023 03/M02 Q1018 TEMPO 10015G25KT

TAF TAF EDDH
Valid from the 21 at 00:00 until the 22 at 06:00 UTC


202300Z 2100/2206 10013G23KT 9999 BKN025
PROB30
TEMPO 2100/2110 BKN014
BECMG 2120/2122 BKN014
No reported NOTAMs for that airfield.



MET'MAP, your aeronautical weather chart ! - Copyright ORBIFLY December 2007 - Disclaimer

ORBIFLY MET'MAP TEAM :

Programming & Development : Alexandra Zaïnal
Concept & Development : Baudouin d'Aumeries
Co-Development & Prog : Marc-Olivier Méhu
Technical & hardware support : Manuel Goepfert

Contact : metmap@orbifly.com




SOURCES & CREDITS :

   NOAA